Jacksonville, IL

12:28 AM CDT on April 19, 2015 (GMT -0500)
Capital | | Change Station
CLOSE
Current Station
Airport
Location: Springfield,
Elevation: 594 ft
Nearby Weather Stations

Elev 594 ft 39.85 °N, 89.68 °W | Updated 36 minutes ago

Partly Cloudy
Partly Cloudy
65 °F
Feels Like 65 °F
N
7
Wind Variable Wind from East

Today
High -- | Low -- °F
--% Chance of Precip.
Yesterday
High -- | Low -- °F
Precip. -- in
6:18 AM 7:43 PM
New Moon, 0% visible
Pressure 29.85 in
Visibility 10.0 miles
Clouds Clear
Dew Point 49 °F
Humidity 56%
Rainfall 0.00 in
Snow Depth Not available.
UV 0 out of 12
Pollen 10.80 out of 12
Air Quality Not available.
Flu Activity Regional
METAR KSPI 190452Z AUTO 09006KT 10SM CLR 18/09 A2986 RMK AO2 SLP107 T01830094

More Conditions Fewer Conditions

Pressure 29.85 in
Visibility 10.0 miles
Clouds Clear
Dew Point 49 °F
Humidity 56%
Rainfall 0.00 in
Snow Depth Not available.
UV 0 out of 12
Pollen 10.80 out of 12
Air Quality Not available.
Flu Activity Regional
METAR KSPI 190452Z AUTO 09006KT 10SM CLR 18/09 A2986 RMK AO2 SLP107 T01830094

More Conditions Fewer Conditions

10-Day Weather Forecast

Almanac

Astronomy

Apr. 19, 2015 Rise Set
Actual Time
Civil Twilight
Nautical Twilight
Astronomical Twilight
Moon
Length of Visible Light
Length of Day
Tomorrow will be .
, % of the Moon is Illuminated

Today's Extremes

State Highs State Lows

Community

WunderPhotos

Upload Photos

1,814,726 photos uploaded!

WunderBlogs® & News

Nearby

Air Quality

  Air Quality AQ Index Pollutant
Not available.

Snow Depth

Station Depth Elevation

Earthquake Activity

City Distance Mag. Time & Date
Minimum magnitude displayed is 2.5.

Coastal Water Temperatures

Place Temperature

Stations

Nearby Weather Stations

Station Location Temp. Windchill Dew Point Humidity Wind Precip. Elev Updated Type